OJAQ/AQJ METAR and TAF weather

Enter ICAO airport designator
Station Type Date Time Source
OJAQ METAR 2019/02/21 16:00 UTC NOAA

OJAQ 211600Z 36012KT CAVOK 19/03 Q1017 NOSIG


Station Type Date Time Source
OJAQ Decoded METAR 2019/02/21 16:00 UTC NOAA

Aqaba Airport, Jordan (OJAQ) 29-38N 035-01E 51M
Feb 21, 2019 - 11:00 AM EST / 2019.02.21 1600 UTC
Wind: from the N (360 degrees) at 14 MPH (12 KT):0
Visibility: greater than 7 mile(s):0
Temperature: 66 F (19 C)
Dew Point: 37 F (3 C)
Relative Humidity: 34%
Pressure (altimeter): 30.03 in. Hg (1017 hPa)
ob: OJAQ 211600Z 36012KT CAVOK 19/03 Q1017 NOSIG
cycle: 16

Station Type Date Time Source
OJAQ TAF 2019/02/21 12:15 UTC NOAA

TAF TAF OJAQ 211034Z 2112/2218 36012KT 7000 NSC


Example: see airport list